createdAt,value
2023-02-01T00:01:15.136Z,98335.00
2023-02-01T00:03:42.748Z,98345.00
2023-02-01T00:06:10.665Z,98352.00
2023-02-01T00:08:38.249Z,98349.00
2023-02-01T00:11:08.647Z,98342.00
2023-02-01T00:13:38.921Z,98337.00
2023-02-01T00:16:08.410Z,98334.00
2023-02-01T00:18:36.544Z,98334.00
2023-02-01T00:21:04.462Z,98340.00
2023-02-01T00:23:34.989Z,98337.00
2023-02-01T00:26:03.500Z,98339.00
2023-02-01T00:28:32.953Z,98343.00
2023-02-01T00:31:01.129Z,98336.00
2023-02-01T00:33:29.139Z,98338.00
2023-02-01T00:35:58.978Z,98340.00
2023-02-01T00:38:26.898Z,98334.00
2023-02-01T00:40:54.552Z,98329.00
2023-02-01T00:43:22.602Z,98335.00
2023-02-01T00:45:51.545Z,98334.00
2023-02-01T00:48:20.932Z,98338.00
2023-02-01T00:50:48.573Z,98337.00
2023-02-01T00:53:16.224Z,98333.00
2023-02-01T00:55:47.140Z,98337.00
2023-02-01T00:58:14.759Z,98333.00
2023-02-01T01:00:42.704Z,98326.00
2023-02-01T01:03:19.390Z,98332.00
2023-02-01T01:05:47.107Z,98326.00
2023-02-01T01:08:15.257Z,98328.00
2023-02-01T01:10:43.339Z,98322.00
2023-02-01T01:13:11.105Z,98315.00
2023-02-01T01:15:39.259Z,98314.00
2023-02-01T01:18:07.044Z,98316.00
2023-02-01T01:20:39.540Z,98330.00
2023-02-01T01:23:08.064Z,98319.00
2023-02-01T01:25:39.200Z,98323.00
2023-02-01T01:28:07.363Z,98325.00
2023-02-01T01:30:35.866Z,98322.00
2023-02-01T01:33:03.663Z,98329.00
2023-02-01T01:35:32.101Z,98320.00
2023-02-01T01:38:02.093Z,98315.00
2023-02-01T01:40:30.223Z,98326.00
2023-02-01T01:42:58.524Z,98328.00
2023-02-01T01:45:28.174Z,98325.00
2023-02-01T01:47:58.229Z,98324.00
2023-02-01T01:50:30.928Z,98312.00
2023-02-01T01:53:04.198Z,98307.00
2023-02-01T01:55:35.789Z,98310.00
2023-02-01T01:58:06.830Z,98309.00
2023-02-01T02:00:35.754Z,98307.00
2023-02-01T02:03:09.183Z,98304.00
2023-02-01T02:05:36.993Z,98301.00
2023-02-01T02:08:06.218Z,98300.00
2023-02-01T02:10:52.112Z,98302.00
2023-02-01T02:13:20.404Z,98302.00
2023-02-01T02:15:58.919Z,98309.00
2023-02-01T02:18:33.415Z,98305.00
2023-02-01T02:21:13.603Z,98304.00
2023-02-01T02:24:18.910Z,98303.00
2023-02-01T02:27:23.860Z,98294.00
2023-02-01T02:30:29.980Z,98288.00
2023-02-01T02:33:21.111Z,98290.00
2023-02-01T02:35:54.836Z,98279.00
2023-02-01T02:38:31.713Z,98284.00
2023-02-01T02:41:08.201Z,98291.00
2023-02-01T02:43:59.286Z,98292.00
2023-02-01T02:46:48.713Z,98281.00
2023-02-01T02:49:23.746Z,98279.00
2023-02-01T02:52:12.179Z,98285.00
2023-02-01T02:54:52.693Z,98291.00
2023-02-01T02:57:41.109Z,98283.00
2023-02-01T03:00:30.238Z,98286.00
2023-02-01T03:03:16.057Z,98275.00
2023-02-01T03:05:47.565Z,98273.00
2023-02-01T03:08:17.077Z,98269.00
2023-02-01T03:10:55.371Z,98262.00
2023-02-01T03:13:29.341Z,98249.00
2023-02-01T03:16:03.519Z,98253.00
2023-02-01T03:18:37.802Z,98238.00
2023-02-01T03:21:12.392Z,98238.00
2023-02-01T03:23:40.442Z,98236.00
2023-02-01T03:26:11.187Z,98237.00
2023-02-01T03:28:40.760Z,98236.00
2023-02-01T03:31:09.199Z,98239.00
2023-02-01T03:33:36.902Z,98243.00
2023-02-01T03:36:17.060Z,98246.00
2023-02-01T03:38:53.967Z,98236.00
2023-02-01T03:41:29.157Z,98223.00
2023-02-01T03:44:00.937Z,98220.00
2023-02-01T03:46:35.038Z,98222.00
2023-02-01T03:49:07.015Z,98232.00
2023-02-01T03:51:39.044Z,98230.00
2023-02-01T03:54:08.781Z,98223.00
2023-02-01T03:56:39.817Z,98207.00
2023-02-01T03:59:07.491Z,98207.00
2023-02-01T04:01:35.265Z,98214.00
2023-02-01T04:04:03.265Z,98227.00
2023-02-01T04:06:30.899Z,98209.00
2023-02-01T04:08:59.853Z,98203.00
2023-02-01T04:11:28.413Z,98214.00
2023-02-01T04:13:56.003Z,98207.00
2023-02-01T04:16:23.683Z,98194.00
2023-02-01T04:21:18.806Z,98198.00
2023-02-01T04:23:46.397Z,98204.00
2023-02-01T04:26:17.264Z,98195.00
2023-02-01T04:28:44.996Z,98200.00
2023-02-01T04:31:12.671Z,98209.00
2023-02-01T04:33:40.372Z,98201.00
2023-02-01T04:36:08.358Z,98206.00
2023-02-01T04:38:36.106Z,98200.00
2023-02-01T04:41:03.700Z,98200.00
2023-02-01T04:43:32.889Z,98194.00
2023-02-01T04:46:00.538Z,98198.00
2023-02-01T04:48:28.666Z,98192.00
2023-02-01T04:50:56.366Z,98189.00
2023-02-01T04:53:23.992Z,98192.00
2023-02-01T04:55:51.847Z,98188.00
2023-02-01T04:58:19.484Z,98195.00
2023-02-01T05:00:48.534Z,98188.00
2023-02-01T05:03:16.288Z,98186.00
2023-02-01T05:05:43.898Z,98191.00
2023-02-01T05:08:11.563Z,98189.00
2023-02-01T05:10:39.175Z,98184.00
2023-02-01T05:13:24.434Z,98191.00
2023-02-01T05:15:53.897Z,98181.00
2023-02-01T05:18:21.547Z,98180.00
2023-02-01T05:20:49.165Z,98172.00
2023-02-01T05:23:16.781Z,98175.00
2023-02-01T05:25:44.415Z,98168.00
2023-02-01T05:28:12.039Z,98174.00
2023-02-01T05:30:42.166Z,98177.00
2023-02-01T05:33:11.313Z,98181.00
2023-02-01T05:35:38.932Z,98172.00
2023-02-01T05:38:06.552Z,98188.00
2023-02-01T05:40:34.205Z,98199.00
2023-02-01T05:43:01.823Z,98203.00
2023-02-01T05:45:29.419Z,98189.00
2023-02-01T05:47:57.016Z,98194.00
2023-02-01T05:50:26.001Z,98201.00
2023-02-01T05:52:53.618Z,98206.00
2023-02-01T05:55:21.224Z,98207.00
2023-02-01T05:57:48.845Z,98199.00
2023-02-01T06:00:16.881Z,98194.00
2023-02-01T06:02:44.827Z,98203.00
2023-02-01T06:05:12.566Z,98209.00
2023-02-01T06:07:41.831Z,98205.00
2023-02-01T06:10:10.894Z,98195.00
2023-02-01T06:12:39.201Z,98192.00
2023-02-01T06:15:08.118Z,98203.00
2023-02-01T06:17:36.048Z,98192.00
2023-02-01T06:20:04.246Z,98185.00
2023-02-01T06:22:31.852Z,98174.00
2023-02-01T06:25:00.825Z,98177.00
2023-02-01T06:27:28.424Z,98178.00
2023-02-01T06:29:56.088Z,98174.00
2023-02-01T06:32:23.912Z,98186.00
2023-02-01T06:34:53.381Z,98178.00
2023-02-01T06:37:21.601Z,98173.00
2023-02-01T06:39:49.255Z,98181.00
2023-02-01T06:42:18.561Z,98181.00
2023-02-01T06:44:46.152Z,98185.00
2023-02-01T06:47:13.789Z,98186.00
2023-02-01T06:49:41.427Z,98178.00
2023-02-01T06:52:09.198Z,98180.00
2023-02-01T06:54:38.328Z,98188.00
2023-02-01T06:57:06.552Z,98176.00
2023-02-01T06:59:35.503Z,98171.00
2023-02-01T07:02:03.155Z,98172.00
2023-02-01T07:04:31.249Z,98171.00
2023-02-01T07:06:58.961Z,98185.00
2023-02-01T07:09:26.596Z,98186.00
2023-02-01T07:11:54.191Z,98171.00
2023-02-01T07:14:21.845Z,98178.00
2023-02-01T07:16:51.816Z,98185.00
2023-02-01T07:19:19.440Z,98187.00
2023-02-01T07:21:47.045Z,98180.00
2023-02-01T07:24:15.562Z,98183.00
2023-02-01T07:26:43.234Z,98190.00
2023-02-01T07:29:11.117Z,98186.00
2023-02-01T07:31:38.738Z,98180.00
2023-02-01T07:34:07.851Z,98182.00
2023-02-01T07:36:37.226Z,98179.00
2023-02-01T07:39:04.973Z,98174.00
2023-02-01T07:41:32.616Z,98182.00
2023-02-01T07:44:00.253Z,98183.00
2023-02-01T07:46:27.978Z,98198.00
2023-02-01T07:48:55.576Z,98188.00
2023-02-01T07:51:24.620Z,98185.00
2023-02-01T07:53:52.616Z,98180.00
2023-02-01T07:56:23.421Z,98175.00
2023-02-01T07:58:51.959Z,98182.00
2023-02-01T08:01:20.826Z,98180.00
2023-02-01T08:03:48.924Z,98164.00
2023-02-01T08:06:16.601Z,98161.00
2023-02-01T08:08:47.676Z,98173.00
2023-02-01T08:11:16.459Z,98169.00
2023-02-01T08:13:44.458Z,98175.00
2023-02-01T08:16:14.498Z,98172.00
2023-02-01T08:18:42.719Z,98175.00
2023-02-01T08:21:12.652Z,98169.00
2023-02-01T08:23:42.127Z,98175.00
2023-02-01T08:26:25.867Z,98167.00
2023-02-01T08:28:55.896Z,98172.00
2023-02-01T08:31:25.260Z,98165.00
2023-02-01T08:33:54.486Z,98176.00
2023-02-01T08:36:23.082Z,98175.00
2023-02-01T08:38:50.988Z,98193.00
2023-02-01T08:41:22.152Z,98197.00
2023-02-01T08:43:50.115Z,98208.00
2023-02-01T08:46:18.035Z,98203.00
2023-02-01T08:48:47.620Z,98208.00
2023-02-01T08:51:17.358Z,98192.00
2023-02-01T08:53:45.283Z,98199.00
2023-02-01T08:56:14.358Z,98192.00
2023-02-01T08:58:43.677Z,98185.00
2023-02-01T09:01:13.511Z,98186.00
2023-02-01T09:03:41.909Z,98190.00
2023-02-01T09:06:11.450Z,98190.00
2023-02-01T09:08:40.345Z,98198.00
2023-02-01T09:11:12.110Z,98206.00
2023-02-01T09:13:39.733Z,98196.00
2023-02-01T09:16:09.189Z,98196.00
2023-02-01T09:18:41.851Z,98207.00
2023-02-01T09:21:18.474Z,98219.00
2023-02-01T09:23:46.159Z,98224.00
2023-02-01T09:26:17.127Z,98236.00
2023-02-01T09:28:47.121Z,98240.00
2023-02-01T09:31:17.033Z,98247.00
2023-02-01T09:33:44.739Z,98244.00
2023-02-01T09:36:12.814Z,98253.00
2023-02-01T09:38:44.620Z,98259.00
2023-02-01T09:41:31.544Z,98295.00
2023-02-01T09:44:09.387Z,98297.00
2023-02-01T09:46:38.961Z,98273.00
2023-02-01T09:49:12.519Z,98265.00
2023-02-01T09:51:44.823Z,98279.00
2023-02-01T09:54:16.473Z,98282.00
2023-02-01T09:56:48.831Z,98283.00
2023-02-01T09:59:27.118Z,98288.00
2023-02-01T10:01:56.257Z,98298.00
2023-02-01T10:04:23.941Z,98292.00
2023-02-01T10:07:04.672Z,98298.00
2023-02-01T10:09:44.274Z,98302.00
2023-02-01T10:12:33.496Z,98303.00
2023-02-01T10:15:11.486Z,98304.00
2023-02-01T10:17:53.071Z,98310.00
2023-02-01T10:20:29.395Z,98309.00
2023-02-01T10:23:23.188Z,98303.00
2023-02-01T10:25:56.102Z,98306.00
2023-02-01T10:28:26.031Z,98290.00
2023-02-01T10:30:58.820Z,98296.00
2023-02-01T10:33:32.213Z,98304.00
2023-02-01T10:36:05.380Z,98291.00
2023-02-01T10:38:35.077Z,98296.00
2023-02-01T10:41:05.977Z,98289.00
2023-02-01T10:43:34.916Z,98292.00
2023-02-01T10:46:02.669Z,98280.00
2023-02-01T10:48:32.872Z,98283.00
2023-02-01T10:51:02.953Z,98279.00
2023-02-01T10:53:36.655Z,98273.00
2023-02-01T10:56:08.635Z,98272.00
2023-02-01T10:58:44.083Z,98271.00
2023-02-01T11:01:17.896Z,98262.00
2023-02-01T11:03:55.482Z,98260.00
2023-02-01T11:06:30.068Z,98256.00
2023-02-01T11:08:59.749Z,98266.00
2023-02-01T11:11:27.712Z,98260.00
2023-02-01T11:13:58.346Z,98251.00
2023-02-01T11:16:36.209Z,98265.00
2023-02-01T11:19:06.994Z,98250.00
2023-02-01T11:21:35.151Z,98233.00
2023-02-01T11:24:04.536Z,98240.00
2023-02-01T11:26:33.895Z,98234.00
2023-02-01T11:29:05.131Z,98231.00
2023-02-01T11:31:35.591Z,98228.00
2023-02-01T11:34:08.814Z,98229.00
2023-02-01T11:36:38.629Z,98225.00
2023-02-01T11:39:13.385Z,98220.00
2023-02-01T11:41:45.966Z,98224.00
2023-02-01T11:44:24.641Z,98227.00
2023-02-01T11:46:54.515Z,98217.00
2023-02-01T11:49:26.908Z,98221.00
2023-02-01T11:52:06.772Z,98221.00
2023-02-01T11:54:48.338Z,98211.00
2023-02-01T11:57:30.003Z,98210.00
2023-02-01T12:00:09.737Z,98203.00
2023-02-01T12:03:09.922Z,98211.00
2023-02-01T12:05:53.103Z,98208.00
2023-02-01T12:08:50.535Z,98214.00
2023-02-01T12:11:35.654Z,98206.00
2023-02-01T12:14:23.278Z,98216.00
2023-02-01T12:17:03.698Z,98213.00
2023-02-01T12:19:46.411Z,98210.00
2023-02-01T12:22:29.364Z,98216.00
2023-02-01T12:25:21.359Z,98203.00
2023-02-01T12:28:13.047Z,98204.00
2023-02-01T12:30:57.004Z,98207.00
2023-02-01T12:33:35.184Z,98202.00
2023-02-01T12:36:14.869Z,98200.00
2023-02-01T12:38:53.087Z,98191.00
2023-02-01T12:41:46.579Z,98181.00
2023-02-01T12:44:25.956Z,98186.00
2023-02-01T12:46:57.116Z,98188.00
2023-02-01T12:49:31.193Z,98188.00
2023-02-01T12:52:03.774Z,98182.00
2023-02-01T12:54:40.053Z,98181.00
2023-02-01T12:57:14.334Z,98189.00
2023-02-01T12:59:46.456Z,98199.00
2023-02-01T13:02:20.892Z,98188.00
2023-02-01T13:05:02.662Z,98183.00
2023-02-01T13:07:35.730Z,98183.00
2023-02-01T13:10:14.787Z,98188.00
2023-02-01T13:12:49.615Z,98175.00
2023-02-01T13:15:22.071Z,98167.00
2023-02-01T13:17:51.925Z,98164.00
2023-02-01T13:20:24.982Z,98162.00
2023-02-01T13:22:57.498Z,98171.00
2023-02-01T13:25:34.562Z,98168.00
2023-02-01T13:28:06.602Z,98170.00
2023-02-01T13:30:47.241Z,98173.00
2023-02-01T13:33:53.559Z,98179.00
2023-02-01T13:36:41.183Z,98173.00
2023-02-01T13:39:50.339Z,98171.00
2023-02-01T13:42:24.808Z,98182.00
2023-02-01T13:44:57.583Z,98176.00
2023-02-01T13:47:30.162Z,98177.00
2023-02-01T13:50:00.447Z,98160.00
2023-02-01T13:52:38.280Z,98155.00
2023-02-01T13:55:26.097Z,98153.00
2023-02-01T13:58:04.106Z,98161.00
2023-02-01T14:00:34.142Z,98156.00
2023-02-01T14:03:20.991Z,98160.00
2023-02-01T14:06:18.606Z,98156.00
2023-02-01T14:09:17.623Z,98160.00
2023-02-01T14:11:47.866Z,98162.00
2023-02-01T14:14:41.489Z,98159.00
2023-02-01T14:17:37.114Z,98154.00
2023-02-01T14:20:40.715Z,98152.00
2023-02-01T14:23:15.443Z,98155.00
2023-02-01T14:25:43.663Z,98157.00
2023-02-01T14:28:26.376Z,98157.00
2023-02-01T14:30:56.428Z,98161.00
2023-02-01T14:33:25.897Z,98168.00
2023-02-01T14:36:07.509Z,98166.00
2023-02-01T14:38:37.907Z,98161.00
2023-02-01T14:41:32.267Z,98163.00
2023-02-01T14:44:25.826Z,98159.00
2023-02-01T14:47:33.060Z,98165.00
2023-02-01T14:50:26.929Z,98173.00
2023-02-01T14:53:12.930Z,98170.00
2023-02-01T14:55:43.253Z,98172.00
2023-02-01T14:58:19.908Z,98160.00
2023-02-01T15:00:54.688Z,98149.00
2023-02-01T15:03:47.751Z,98154.00
2023-02-01T15:06:26.137Z,98155.00
2023-02-01T15:08:56.968Z,98154.00
2023-02-01T15:11:24.628Z,98158.00
2023-02-01T15:13:55.443Z,98150.00
2023-02-01T15:16:24.834Z,98140.00
2023-02-01T15:19:10.755Z,98151.00
2023-02-01T15:21:47.802Z,98140.00
2023-02-01T15:24:20.462Z,98145.00
2023-02-01T15:26:48.577Z,98135.00
2023-02-01T15:29:17.011Z,98134.00
2023-02-01T15:31:47.736Z,98128.00
2023-02-01T15:34:17.609Z,98134.00
2023-02-01T15:37:01.435Z,98124.00
2023-02-01T15:39:31.803Z,98112.00
2023-02-01T15:42:02.915Z,98118.00
2023-02-01T15:44:35.200Z,98117.00
2023-02-01T15:47:09.928Z,98120.00
2023-02-01T15:49:42.118Z,98108.00
2023-02-01T15:52:25.956Z,98101.00
2023-02-01T15:54:56.031Z,98114.00
2023-02-01T15:57:31.463Z,98108.00
2023-02-01T16:00:00.798Z,98117.00
2023-02-01T16:02:33.173Z,98110.00
2023-02-01T16:05:03.312Z,98110.00
2023-02-01T16:07:32.265Z,98110.00
2023-02-01T16:10:07.211Z,98115.00
2023-02-01T16:12:37.116Z,98117.00
2023-02-01T16:15:05.198Z,98118.00
2023-02-01T16:17:33.055Z,98120.00
2023-02-01T16:20:02.212Z,98125.00
2023-02-01T16:22:29.832Z,98111.00
2023-02-01T16:24:58.012Z,98123.00
2023-02-01T16:27:25.782Z,98125.00
2023-02-01T16:29:56.792Z,98116.00
2023-02-01T16:32:27.896Z,98108.00
2023-02-01T16:34:55.753Z,98103.00
2023-02-01T16:37:26.365Z,98123.00
2023-02-01T16:39:54.037Z,98111.00
2023-02-01T16:42:21.676Z,98120.00
2023-02-01T16:44:49.308Z,98128.00
2023-02-01T16:47:21.088Z,98131.00
2023-02-01T16:49:50.321Z,98133.00
2023-02-01T16:52:20.278Z,98133.00
2023-02-01T16:54:50.049Z,98121.00
2023-02-01T16:57:23.345Z,98124.00
2023-02-01T16:59:52.133Z,98133.00
2023-02-01T17:02:22.794Z,98125.00
2023-02-01T17:04:50.734Z,98121.00
2023-02-01T17:07:20.093Z,98118.00
2023-02-01T17:09:49.192Z,98111.00
2023-02-01T17:12:23.848Z,98111.00
2023-02-01T17:14:52.291Z,98121.00
2023-02-01T17:17:32.642Z,98119.00
2023-02-01T17:20:06.852Z,98123.00
2023-02-01T17:22:34.963Z,98119.00
2023-02-01T17:25:06.932Z,98116.00
2023-02-01T17:27:35.388Z,98119.00
2023-02-01T17:30:04.246Z,98108.00
2023-02-01T17:32:32.370Z,98112.00
2023-02-01T17:35:00.112Z,98122.00
2023-02-01T17:37:29.649Z,98110.00
2023-02-01T17:39:57.494Z,98105.00
2023-02-01T17:42:28.128Z,98100.00
2023-02-01T17:44:59.196Z,98117.00
2023-02-01T17:47:26.837Z,98109.00
2023-02-01T17:49:57.050Z,98107.00
2023-02-01T17:52:26.052Z,98100.00
2023-02-01T17:54:54.576Z,98103.00
2023-02-01T17:57:22.675Z,98105.00
2023-02-01T17:59:51.744Z,98111.00
2023-02-01T18:02:21.626Z,98118.00
2023-02-01T18:04:49.987Z,98099.00
2023-02-01T18:07:17.728Z,98108.00
2023-02-01T18:09:45.345Z,98100.00
2023-02-01T18:12:19.884Z,98099.00
2023-02-01T18:14:47.511Z,98113.00
2023-02-01T18:17:16.582Z,98091.00
2023-02-01T18:19:44.190Z,98097.00
2023-02-01T18:22:17.788Z,98098.00
2023-02-01T18:24:45.418Z,98095.00
2023-02-01T18:27:13.058Z,98098.00
2023-02-01T18:29:40.725Z,98092.00
2023-02-01T18:32:11.137Z,98086.00
2023-02-01T18:34:40.965Z,98088.00
2023-02-01T18:37:08.607Z,98113.00
2023-02-01T18:39:37.545Z,98102.00
2023-02-01T18:42:05.310Z,98099.00
2023-02-01T18:44:32.923Z,98093.00
2023-02-01T18:47:00.709Z,98099.00
2023-02-01T18:49:28.319Z,98088.00
2023-02-01T18:51:57.292Z,98093.00
2023-02-01T18:54:26.256Z,98103.00
2023-02-01T18:56:54.019Z,98102.00
2023-02-01T18:59:21.902Z,98088.00
2023-02-01T19:01:49.593Z,98104.00
2023-02-01T19:04:24.411Z,98092.00
2023-02-01T19:06:54.887Z,98091.00
2023-02-01T19:09:23.906Z,98091.00
2023-02-01T19:11:51.562Z,98091.00
2023-02-01T19:14:19.156Z,98092.00
2023-02-01T19:16:46.778Z,98072.00
2023-02-01T19:19:14.420Z,98083.00
2023-02-01T19:21:42.024Z,98088.00
2023-02-01T19:24:09.896Z,98087.00
2023-02-01T19:26:38.886Z,98081.00
2023-02-01T19:29:06.522Z,98084.00
2023-02-01T19:31:34.507Z,98086.00
2023-02-01T19:34:02.395Z,98100.00
2023-02-01T19:36:29.996Z,98099.00
2023-02-01T19:38:57.700Z,98098.00
2023-02-01T19:41:25.327Z,98095.00
2023-02-01T19:43:54.263Z,98097.00
2023-02-01T19:46:22.083Z,98095.00
2023-02-01T19:48:49.779Z,98091.00
2023-02-01T19:51:17.626Z,98114.00
2023-02-01T19:53:45.742Z,98091.00
2023-02-01T19:56:13.488Z,98099.00
2023-02-01T19:58:41.129Z,98097.00
2023-02-01T20:01:09.814Z,98103.00
2023-02-01T20:03:37.448Z,98096.00
2023-02-01T20:06:07.319Z,98104.00
2023-02-01T20:08:35.037Z,98107.00
2023-02-01T20:11:06.145Z,98106.00
2023-02-01T20:13:35.168Z,98099.00
2023-02-01T20:16:02.974Z,98113.00
2023-02-01T20:18:32.038Z,98107.00
2023-02-01T20:21:00.277Z,98105.00
2023-02-01T20:23:28.469Z,98115.00
2023-02-01T20:26:02.790Z,98110.00
2023-02-01T20:28:30.896Z,98111.00
2023-02-01T20:30:58.814Z,98101.00
2023-02-01T20:33:27.624Z,98099.00
2023-02-01T20:35:56.960Z,98097.00
2023-02-01T20:38:25.433Z,98094.00
2023-02-01T20:40:53.096Z,98088.00
2023-02-01T20:43:20.804Z,98094.00
2023-02-01T20:45:51.027Z,98090.00
2023-02-01T20:48:18.645Z,98102.00
2023-02-01T20:50:46.420Z,98097.00
2023-02-01T20:53:26.053Z,98093.00
2023-02-01T20:55:55.632Z,98096.00
2023-02-01T20:58:23.675Z,98084.00
2023-02-01T21:00:51.839Z,98092.00
2023-02-01T21:03:19.676Z,98093.00
2023-02-01T21:05:48.751Z,98087.00
2023-02-01T21:08:18.612Z,98098.00
2023-02-01T21:10:57.263Z,98105.00
2023-02-01T21:13:25.381Z,98090.00
2023-02-01T21:15:53.462Z,98090.00
2023-02-01T21:18:21.588Z,98107.00
2023-02-01T21:20:49.305Z,98103.00
2023-02-01T21:23:18.879Z,98105.00
2023-02-01T21:25:46.860Z,98099.00
2023-02-01T21:28:15.148Z,98095.00
2023-02-01T21:30:44.351Z,98107.00
2023-02-01T21:33:12.012Z,98103.00
2023-02-01T21:35:42.717Z,98108.00
2023-02-01T21:38:10.916Z,98094.00
2023-02-01T21:40:39.920Z,98104.00
2023-02-01T21:43:07.620Z,98101.00
2023-02-01T21:45:36.050Z,98108.00
2023-02-01T21:48:04.857Z,98115.00
2023-02-01T21:50:32.664Z,98120.00
2023-02-01T21:53:00.288Z,98114.00
2023-02-01T21:55:27.868Z,98112.00
2023-02-01T21:57:56.829Z,98109.00
2023-02-01T22:00:24.924Z,98116.00
2023-02-01T22:02:52.557Z,98114.00
2023-02-01T22:05:20.908Z,98123.00
2023-02-01T22:07:48.503Z,98124.00
2023-02-01T22:10:16.143Z,98128.00
2023-02-01T22:12:43.778Z,98120.00
2023-02-01T22:15:13.027Z,98128.00
2023-02-01T22:17:41.057Z,98124.00
2023-02-01T22:20:09.983Z,98113.00
2023-02-01T22:22:37.627Z,98125.00
2023-02-01T22:25:07.541Z,98115.00
2023-02-01T22:28:30.657Z,98109.00
2023-02-01T22:30:24.274Z,98117.00
2023-02-01T22:32:51.898Z,98112.00
2023-02-01T22:35:19.539Z,98110.00
2023-02-01T22:37:47.115Z,98113.00
2023-02-01T22:40:15.101Z,98114.00
2023-02-01T22:42:42.680Z,98112.00
2023-02-01T22:45:11.235Z,98099.00
2023-02-01T22:47:40.207Z,98105.00
2023-02-01T22:50:09.033Z,98103.00
2023-02-01T22:52:36.619Z,98092.00
2023-02-01T22:55:04.543Z,98101.00
2023-02-01T22:57:32.311Z,98103.00
2023-02-01T22:59:59.908Z,98094.00
2023-02-01T23:02:27.500Z,98098.00
2023-02-01T23:04:56.810Z,98101.00
2023-02-01T23:07:24.489Z,98090.00
2023-02-01T23:09:52.180Z,98111.00
2023-02-01T23:12:19.774Z,98094.00
2023-02-01T23:15:01.333Z,98098.00
2023-02-01T23:17:28.934Z,98100.00
2023-02-01T23:19:57.886Z,98105.00
2023-02-01T23:22:25.874Z,98102.00
2023-02-01T23:24:53.750Z,98109.00
2023-02-01T23:27:21.355Z,98086.00
2023-02-01T23:29:48.993Z,98091.00
2023-02-01T23:32:17.179Z,98099.00
2023-02-01T23:34:45.152Z,98098.00
2023-02-01T23:37:14.439Z,98104.00
2023-02-01T23:39:42.041Z,98102.00
2023-02-01T23:42:09.621Z,98097.00
2023-02-01T23:44:37.229Z,98097.00
2023-02-01T23:47:04.932Z,98096.00
2023-02-01T23:49:32.541Z,98103.00
2023-02-01T23:52:00.129Z,98103.00
2023-02-01T23:54:29.179Z,98123.00
2023-02-01T23:56:57.325Z,98130.00
2023-02-01T23:59:26.803Z,98129.00
